Terminal Aerodrome Forecast
Issued by NWS

Home | Current Version | Previous Version | Text Only | Print | Product List | Glossary On
Versions: 1 2 3 4 5 6 7 8 9 10 11 12 13 14 15
293
FTUS41 KCAR 031127
TAFPQI
TAF
KPQI 031127Z 0312/0412 03005KT P6SM SCT007 OVC020
      TEMPO 0312/0313 OVC007
     FM031300 03005KT P6SM OVC015
     FM031900 VRB03KT P6SM OVC040
     FM040300 VRB03KT P6SM BKN025
     FM040600 03004KT 6SM BR BKN008
     FM040900 04006KT P6SM SCT007 OVC015=

USA.gov is the U.S. government's official web portal to all federal, state and local government web resources and services.